»·PEaware :: QXE2571 KPDX-KOAK

QXE2571 :: KPDX-KOAK

FLIGHT INFORMATION

Flight Status: Arrived
Operator:
Horizon Air
More flights by this operator :: More flights under this callsign
Pilot: Brett J. (1348)
Aircraft: DEHAVILLAND DASH 8 400
(DH8D)
More flights by this aircraft type
Origin: KPDX Portland Intl
United States
Destination: KOAK Metro Oakland Intl
United States
More flights between these airports :: More routes between these airports
Route: MINNE5 HISKU Q5 HUPTU SPAMY WNDSR2
File this flight plan on PilotEdge
Remarks: PBN / D1 DOF / 180214 REG / N847SB EET / KZOA0055 OPR / QXE PER / C RMK / TCAS SIMBRIEF
Altitude:
(Current/Filed)
25,000ft
Speed:
(Current/Filed)
318kts
Departed: 13-Feb-18 10:18 PM
Arrived: 13-Feb-18 11:57 PM
Distance/Time
Traveled:
473nm/1:39
Distance/Time
To Go:
Arrived

Flight Plot

Page will automatically refresh every two minutes.

Flight plan parsing failed; only flown route is shown


Map Options




Map Legend


Flown Route
Filed Route
Departure Airport
Arrival Airport
Navaid (VOR, NDB)
Fix

Horizontal Profiles

Position Reports

Time Latitude Longitude Heading Altitude Ground
Speed
13-Feb-18 21:56 45.587550 -122.594264 52 36ft 0kts
13-Feb-18 21:57 45.587550 -122.594264 52 36ft 0kts
13-Feb-18 21:58 45.587550 -122.594264 52 36ft 0kts
13-Feb-18 21:59 45.587550 -122.594264 52 36ft 0kts
13-Feb-18 22:00 45.587550 -122.594264 52 36ft 0kts
13-Feb-18 22:01 45.587550 -122.594264 52 36ft 0kts
13-Feb-18 22:02 45.587550 -122.594264 52 36ft 0kts
13-Feb-18 22:03 45.587550 -122.594264 52 36ft 0kts
13-Feb-18 22:04 45.587550 -122.594264 52 36ft 0kts
13-Feb-18 22:05 45.587550 -122.594264 52 36ft 0kts
13-Feb-18 22:06 45.587550 -122.594264 52 36ft 0kts
13-Feb-18 22:07 45.587550 -122.594264 52 36ft 0kts
13-Feb-18 22:08 45.587550 -122.594264 52 36ft 0kts
13-Feb-18 22:09 45.587550 -122.594264 52 36ft 0kts
13-Feb-18 22:10 45.587550 -122.594264 52 36ft 0kts
13-Feb-18 22:11 45.587553 -122.594260 52 36ft 0kts
13-Feb-18 22:12 45.587243 -122.594833 49 36ft 2kts
13-Feb-18 22:13 45.586815 -122.594768 301 36ft 0kts
13-Feb-18 22:14 45.586815 -122.594769 301 36ft 0kts
13-Feb-18 22:15 45.587089 -122.595407 301 36ft 6kts
13-Feb-18 22:16 45.588199 -122.598251 298 36ft 9kts
13-Feb-18 22:17 45.589273 -122.600988 298 36ft 8kts
13-Feb-18 22:18 45.590334 -122.603087 359 36ft 6kts
13-Feb-18 22:19 45.591635 -122.601492 44 36ft 6kts
13-Feb-18 22:20 45.593121 -122.599366 44 36ft 8kts
13-Feb-18 22:21 45.594459 -122.597481 45 36ft 0kts
13-Feb-18 22:22 45.594528 -122.597380 45 36ft 0kts
13-Feb-18 22:23 45.594536 -122.597367 45 36ft 0kts
13-Feb-18 22:24 45.594763 -122.595631 108 36ft 5kts
13-Feb-18 22:25 45.579471 -122.556022 117 1258ft 170kts
13-Feb-18 22:26 45.570342 -122.494342 103 4459ft 171kts
13-Feb-18 22:27 45.559235 -122.424806 107 7113ft 191kts
13-Feb-18 22:28 45.545396 -122.349443 113 9848ft 204kts
13-Feb-18 22:29 45.498989 -122.322456 179 12551ft 191kts
13-Feb-18 22:30 45.446162 -122.314070 201 15216ft 190kts
13-Feb-18 22:31 45.417165 -122.368731 245 17745ft 179kts
13-Feb-18 22:32 45.394777 -122.432933 248 19995ft 186kts
13-Feb-18 22:33 45.372819 -122.500479 249 21990ft 193kts
13-Feb-18 22:34 45.350292 -122.570743 249 23771ft 199kts
13-Feb-18 22:35 45.326981 -122.643585 250 25157ft 215kts
13-Feb-18 22:36 45.300122 -122.727306 248 25189ft 261kts
13-Feb-18 22:37 45.267293 -122.829170 248 25177ft 302kts
13-Feb-18 22:38 45.230370 -122.935676 229 25138ft 308kts
13-Feb-18 22:39 45.144116 -122.964025 187 25160ft 333kts
13-Feb-18 22:40 45.051300 -122.962796 184 25158ft 336kts
13-Feb-18 22:41 44.973341 -122.960216 184 25153ft 338kts
13-Feb-18 22:42 44.864605 -122.956509 184 25155ft 338kts
13-Feb-18 22:43 44.770680 -122.953315 184 25155ft 338kts
13-Feb-18 22:44 44.692208 -122.950709 183 25151ft 339kts
13-Feb-18 22:45 44.598090 -122.947453 183 25187ft 339kts
13-Feb-18 22:46 44.487948 -122.943801 183 25184ft 340kts
13-Feb-18 22:47 44.408900 -122.941351 183 25181ft 341kts
13-Feb-18 22:48 44.314428 -122.938441 183 25167ft 342kts
13-Feb-18 22:49 44.203908 -122.935104 182 25164ft 342kts
13-Feb-18 22:50 44.124832 -122.932647 182 25167ft 343kts
13-Feb-18 22:51 44.030062 -122.929752 182 25164ft 344kts
13-Feb-18 22:52 43.934923 -122.926820 182 25163ft 344kts
13-Feb-18 22:53 43.840720 -122.924009 182 25162ft 344kts
13-Feb-18 22:54 43.745259 -122.921077 182 25165ft 344kts
13-Feb-18 22:55 43.649877 -122.918255 181 25165ft 345kts
13-Feb-18 22:56 43.554099 -122.915376 181 25181ft 345kts
13-Feb-18 22:57 43.458214 -122.912463 181 25181ft 345kts
13-Feb-18 22:58 43.362476 -122.909662 181 25180ft 345kts
13-Feb-18 22:59 43.266534 -122.906792 182 25182ft 346kts
13-Feb-18 23:00 43.170599 -122.903964 181 25183ft 346kts
13-Feb-18 23:01 43.074209 -122.901126 181 25185ft 347kts
13-Feb-18 23:02 42.977628 -122.898257 181 25185ft 348kts
13-Feb-18 23:03 42.881827 -122.895454 181 25153ft 349kts
13-Feb-18 23:04 42.785285 -122.892620 181 25154ft 348kts
13-Feb-18 23:05 42.688462 -122.889841 180 25180ft 348kts
13-Feb-18 23:06 42.591898 -122.886974 180 25184ft 349kts
13-Feb-18 23:07 42.495002 -122.884173 180 25183ft 350kts
13-Feb-18 23:08 42.397834 -122.881300 181 25184ft 350kts
13-Feb-18 23:09 42.300794 -122.878586 181 25184ft 349kts
13-Feb-18 23:10 42.204026 -122.875881 180 25181ft 348kts
13-Feb-18 23:11 42.107263 -122.873080 180 25183ft 349kts
13-Feb-18 23:12 42.010247 -122.870320 180 25184ft 349kts
13-Feb-18 23:13 41.913344 -122.867574 180 25220ft 349kts
13-Feb-18 23:14 41.817548 -122.864874 180 25218ft 349kts
13-Feb-18 23:15 41.720841 -122.862171 180 25220ft 349kts
13-Feb-18 23:16 41.623390 -122.859424 180 25219ft 351kts
13-Feb-18 23:17 41.526096 -122.856751 180 25220ft 352kts
13-Feb-18 23:18 41.429613 -122.853994 180 25232ft 352kts
13-Feb-18 23:19 41.331948 -122.851033 178 25238ft 353kts
13-Feb-18 23:20 41.233921 -122.845262 178 25240ft 354kts
13-Feb-18 23:21 41.135716 -122.839430 177 25239ft 355kts
13-Feb-18 23:22 41.037565 -122.833554 177 25240ft 356kts
13-Feb-18 23:23 40.938305 -122.827654 177 25246ft 357kts
13-Feb-18 23:24 40.841318 -122.821917 177 25236ft 357kts
13-Feb-18 23:25 40.742447 -122.816088 177 25236ft 357kts
13-Feb-18 23:26 40.643039 -122.810260 176 25232ft 358kts
13-Feb-18 23:27 40.543342 -122.804375 176 25210ft 360kts
13-Feb-18 23:28 40.443643 -122.798540 176 25210ft 360kts
13-Feb-18 23:29 40.343757 -122.792712 176 25211ft 360kts
13-Feb-18 23:30 40.243868 -122.786905 176 25211ft 360kts
13-Feb-18 23:31 40.143872 -122.781107 175 25231ft 362kts
13-Feb-18 23:32 40.043452 -122.775292 175 25232ft 363kts
13-Feb-18 23:33 39.942696 -122.769483 175 25232ft 363kts
13-Feb-18 23:34 39.842889 -122.763747 175 25225ft 363kts
13-Feb-18 23:35 39.742122 -122.757973 175 25225ft 363kts
13-Feb-18 23:36 39.641345 -122.752214 175 25228ft 364kts
13-Feb-18 23:37 39.540507 -122.746477 174 25264ft 364kts
13-Feb-18 23:38 39.444211 -122.714938 154 25265ft 358kts
13-Feb-18 23:39 39.352074 -122.668297 154 24342ft 356kts
13-Feb-18 23:40 39.263298 -122.622969 153 24260ft 333kts
13-Feb-18 23:41 39.175599 -122.588495 167 23944ft 343kts
13-Feb-18 23:42 39.077944 -122.573675 169 23271ft 354kts
13-Feb-18 23:43 38.981579 -122.553634 164 22600ft 359kts
13-Feb-18 23:44 38.883454 -122.529025 164 21487ft 367kts
13-Feb-18 23:45 38.784152 -122.504239 164 20295ft 363kts
13-Feb-18 23:46 38.685773 -122.479925 166 19086ft 361kts
13-Feb-18 23:47 38.586124 -122.464192 168 17619ft 362kts
13-Feb-18 23:48 38.486056 -122.448851 169 15764ft 365kts
13-Feb-18 23:49 38.387602 -122.433893 169 13746ft 348kts
13-Feb-18 23:50 38.294505 -122.420048 171 11747ft 329kts
13-Feb-18 23:51 38.206565 -122.406448 171 9740ft 310kts
13-Feb-18 23:52 38.127345 -122.394154 171 8426ft 272kts
13-Feb-18 23:53 38.058496 -122.383617 171 7408ft 241kts
13-Feb-18 23:54 38.000498 -122.356894 144 6375ft 215kts
13-Feb-18 23:55 37.951644 -122.312070 142 4999ft 215kts
13-Feb-18 23:56 37.910495 -122.273115 141 4962ft 155kts
13-Feb-18 23:57 37.881451 -122.245390 140 5007ft 132kts
13-Feb-18 23:58 37.851054 -122.216749 142 4559ft 158kts
13-Feb-18 23:59 37.806083 -122.206720 190 2837ft 217kts
14-Feb-18 00:00 37.746900 -122.215492 126 1373ft 211kts
14-Feb-18 00:01 37.721566 -122.175335 134 1194ft 117kts
14-Feb-18 00:02 37.704041 -122.197176 207 589ft 116kts
14-Feb-18 00:03 37.709441 -122.226203 310 15ft 42kts
14-Feb-18 00:04 37.712698 -122.230553 325 15ft 2kts
14-Feb-18 00:05 37.714917 -122.230602 127 15ft 6kts
14-Feb-18 00:06 37.713392 -122.228314 130 15ft 13kts
14-Feb-18 00:07 37.711101 -122.224702 100 15ft 9kts
14-Feb-18 00:08 37.712650 -122.222667 41 15ft 7kts
14-Feb-18 00:09 37.711614 -122.219882 130 15ft 10kts
14-Feb-18 00:10 37.711230 -122.217450 71 15ft 3kts
14-Feb-18 00:11 37.710959 -122.216747 125 15ft 0kts
14-Feb-18 00:12 37.710959 -122.216747 125 15ft 0kts
14-Feb-18 00:13 37.710959 -122.216747 125 15ft 0kts
14-Feb-18 00:14 37.710959 -122.216747 125 15ft 0kts

Navigation Log

Ident Type
Flight plan parsing failed, navigation log unavailable